»·PEaware :: N515ZT KSAN-KFAT

N515ZT :: KSAN-KFAT

FLIGHT INFORMATION

Flight Status: Arrived
Operator: Privately registered:
United States
More flights under this callsign
Pilot: Marty P. (27464)
Aircraft: BEECH AIRCRAFT BARON
(BE58)
More flights by this aircraft type
Origin: KSAN San Diego Intl-Lindbergh
United States
Destination: KFAT Fresno Yosemite Intl
United States
More flights between these airports :: More routes between these airports
Route: +
File this flight plan on PilotEdge
Remarks: FF
Altitude:
(Current/Filed)
10,500ft
Speed:
(Current/Filed)
0kts
Departed: 05-Feb-20 04:03 PM
Arrived: 05-Feb-20 05:53 PM
Distance/Time
Traveled:
273nm/1:50
Distance/Time
To Go:
Arrived

Flight Plot

Page will automatically refresh every two minutes.

Flight plan parsing failed; only flown route is shown


Map Options




Map Legend


Flown Route
Filed Route
Departure Airport
Arrival Airport
Navaid (VOR, NDB)
Fix

Horizontal Profiles

Position Reports

Time Latitude Longitude Heading Altitude Ground
Speed
05-Feb-20 15:55 32.731077 -117.191159 19 18ft 9kts
05-Feb-20 15:56 32.732817 -117.190890 285 18ft 1kts
05-Feb-20 15:57 32.732137 -117.188049 105 18ft 19kts
05-Feb-20 15:58 32.730680 -117.182048 106 18ft 20kts
05-Feb-20 15:58 32.730495 -117.181284 104 18ft 0kts
05-Feb-20 16:00 32.730284 -117.180384 106 18ft 13kts
05-Feb-20 16:01 32.729535 -117.176620 71 18ft 0kts
05-Feb-20 16:01 32.729632 -117.176274 71 18ft 9kts
05-Feb-20 16:02 32.735296 -117.197452 284 327ft 126kts
05-Feb-20 16:04 32.765614 -117.236810 321 1110ft 166kts
05-Feb-20 16:04 32.794312 -117.263266 321 2030ft 149kts
05-Feb-20 16:05 32.822692 -117.288709 320 3868ft 99kts
05-Feb-20 16:06 32.820638 -117.320897 259 5235ft 114kts
05-Feb-20 16:07 32.811693 -117.360164 259 6617ft 129kts
05-Feb-20 16:08 32.811349 -117.399566 320 8072ft 122kts
05-Feb-20 16:09 32.835856 -117.426223 323 9446ft 116kts
05-Feb-20 16:10 32.858598 -117.450844 324 10643ft 106kts
05-Feb-20 16:11 32.881093 -117.475030 325 11577ft 118kts
05-Feb-20 16:12 32.907540 -117.503285 324 12127ft 134kts
05-Feb-20 16:13 32.935643 -117.533485 324 12653ft 136kts
05-Feb-20 16:14 32.963590 -117.563544 325 13170ft 134kts
05-Feb-20 16:15 32.991254 -117.593297 325 13652ft 133kts
05-Feb-20 16:16 33.018537 -117.622650 325 14099ft 131kts
05-Feb-20 16:17 33.045481 -117.651701 325 14524ft 129kts
05-Feb-20 16:18 33.074424 -117.682646 325 14496ft 147kts
05-Feb-20 16:19 33.104514 -117.714884 324 14503ft 154kts
05-Feb-20 16:20 33.136893 -117.749633 324 14504ft 158kts
05-Feb-20 16:21 33.169697 -117.784873 324 14503ft 159kts
05-Feb-20 16:22 33.202544 -117.820181 324 14503ft 159kts
05-Feb-20 16:23 33.229192 -117.864297 312 14502ft 165kts
05-Feb-20 16:24 33.257460 -117.905898 324 14497ft 159kts
05-Feb-20 16:25 33.290490 -117.941457 324 14494ft 159kts
05-Feb-20 16:26 33.323431 -117.976942 324 14490ft 159kts
05-Feb-20 16:27 33.356440 -118.012514 324 14485ft 160kts
05-Feb-20 16:28 33.389656 -118.048299 324 14502ft 160kts
05-Feb-20 16:29 33.422941 -118.084197 324 14500ft 161kts
05-Feb-20 16:30 33.456185 -118.120043 324 14500ft 161kts
05-Feb-20 16:31 33.489414 -118.155905 324 14498ft 161kts
05-Feb-20 16:32 33.522679 -118.191794 324 14499ft 160kts
05-Feb-20 16:33 33.555766 -118.227543 324 14499ft 160kts
05-Feb-20 16:34 33.588816 -118.263271 324 14499ft 159kts
05-Feb-20 16:35 33.621804 -118.298965 324 14498ft 159kts
05-Feb-20 16:36 33.654771 -118.334610 324 14498ft 159kts
05-Feb-20 16:37 33.687819 -118.370404 324 14497ft 159kts
05-Feb-20 16:38 33.720777 -118.406068 324 14498ft 160kts
05-Feb-20 16:39 33.753964 -118.442047 324 14496ft 160kts
05-Feb-20 16:40 33.787061 -118.477896 324 14496ft 160kts
05-Feb-20 16:41 33.818620 -118.512185 324 14496ft 160kts
05-Feb-20 16:42 33.848438 -118.544654 324 14495ft 160kts
05-Feb-20 16:43 33.879627 -118.578586 324 14495ft 160kts
05-Feb-20 16:44 33.913931 -118.615994 325 14503ft 158kts
05-Feb-20 16:45 33.946063 -118.650891 324 14507ft 160kts
05-Feb-20 16:46 33.979332 -118.687127 324 14502ft 161kts
05-Feb-20 16:47 34.012398 -118.723196 324 14497ft 160kts
05-Feb-20 16:48 34.045616 -118.759367 324 14499ft 161kts
05-Feb-20 16:49 34.078810 -118.795510 324 14502ft 159kts
05-Feb-20 16:50 34.111546 -118.828066 335 14511ft 156kts
05-Feb-20 16:51 34.152371 -118.846073 346 14508ft 156kts
05-Feb-20 16:52 34.194645 -118.858311 348 14508ft 156kts
05-Feb-20 16:53 34.237372 -118.869643 348 14503ft 156kts
05-Feb-20 16:54 34.279029 -118.880510 348 14502ft 157kts
05-Feb-20 16:55 34.321671 -118.891625 348 14505ft 155kts
05-Feb-20 16:56 34.364407 -118.902834 348 14502ft 157kts
05-Feb-20 16:57 34.407320 -118.913990 348 14503ft 159kts
05-Feb-20 16:58 34.450239 -118.925145 348 14496ft 158kts
05-Feb-20 16:59 34.493003 -118.936319 348 14496ft 157kts
05-Feb-20 17:00 34.535757 -118.947495 348 14495ft 157kts
05-Feb-20 17:01 34.578638 -118.958687 348 14490ft 158kts
05-Feb-20 17:02 34.621570 -118.969978 348 14485ft 157kts
05-Feb-20 17:03 34.664450 -118.981241 348 14472ft 158kts
05-Feb-20 17:04 34.707292 -118.992510 348 14463ft 156kts
05-Feb-20 17:05 34.749726 -119.003675 348 14475ft 155kts
05-Feb-20 17:06 34.791754 -119.014747 348 14500ft 154kts
05-Feb-20 17:07 34.833749 -119.025811 348 14524ft 154kts
05-Feb-20 17:08 34.875612 -119.036845 348 14550ft 154kts
05-Feb-20 17:09 34.917498 -119.047910 348 14563ft 155kts
05-Feb-20 17:10 34.959709 -119.059077 348 14555ft 156kts
05-Feb-20 17:11 35.002087 -119.070271 347 14557ft 156kts
05-Feb-20 17:12 35.044466 -119.081499 348 14567ft 155kts
05-Feb-20 17:13 35.087050 -119.092807 348 14504ft 157kts
05-Feb-20 17:14 35.128004 -119.103675 348 14513ft 156kts
05-Feb-20 17:15 35.170569 -119.114985 348 14512ft 156kts
05-Feb-20 17:16 35.213068 -119.126324 348 14511ft 156kts
05-Feb-20 17:17 35.255689 -119.137665 348 14511ft 156kts
05-Feb-20 17:18 35.298146 -119.148961 348 14509ft 156kts
05-Feb-20 17:19 35.340423 -119.160258 348 14510ft 156kts
05-Feb-20 17:20 35.382953 -119.171633 348 14510ft 156kts
05-Feb-20 17:21 35.425499 -119.182999 348 14414ft 160kts
05-Feb-20 17:22 35.470539 -119.195073 348 13865ft 177kts
05-Feb-20 17:23 35.518061 -119.207823 348 13153ft 183kts
05-Feb-20 17:24 35.567971 -119.221203 348 12478ft 182kts
05-Feb-20 17:25 35.614698 -119.233769 348 12505ft 166kts
05-Feb-20 17:26 35.659230 -119.245745 348 12506ft 162kts
05-Feb-20 17:27 35.699558 -119.256628 348 12506ft 160kts
05-Feb-20 17:28 35.741757 -119.268009 349 12506ft 160kts
05-Feb-20 17:29 35.783829 -119.279356 349 12505ft 160kts
05-Feb-20 17:30 35.827250 -119.291112 349 12506ft 160kts
05-Feb-20 17:31 35.870791 -119.302879 349 12509ft 160kts
05-Feb-20 17:32 35.914133 -119.314617 349 12512ft 159kts
05-Feb-20 17:33 35.957011 -119.326236 349 12515ft 158kts
05-Feb-20 17:34 35.999983 -119.337911 349 12519ft 158kts
05-Feb-20 17:35 36.042754 -119.349528 349 12517ft 157kts
05-Feb-20 17:36 36.085918 -119.361291 349 12280ft 168kts
05-Feb-20 17:37 36.132795 -119.374023 349 11306ft 185kts
05-Feb-20 17:38 36.183985 -119.387979 348 10367ft 191kts
05-Feb-20 17:39 36.236476 -119.402274 348 9502ft 196kts
05-Feb-20 17:40 36.290765 -119.417152 348 8397ft 211kts
05-Feb-20 17:41 36.348104 -119.432554 348 6988ft 212kts
05-Feb-20 17:42 36.403844 -119.447204 348 5597ft 201kts
05-Feb-20 17:43 36.458605 -119.461426 348 4216ft 202kts
05-Feb-20 17:44 36.513042 -119.478142 347 2899ft 203kts
05-Feb-20 17:45 36.566642 -119.492832 348 2508ft 194kts
05-Feb-20 17:46 36.619678 -119.506198 348 2500ft 195kts
05-Feb-20 17:47 36.671625 -119.523128 313 2479ft 195kts
05-Feb-20 17:48 36.699126 -119.581570 306 2502ft 197kts
05-Feb-20 17:49 36.728239 -119.632441 306 1765ft 169kts
05-Feb-20 17:50 36.753652 -119.676948 305 917ft 164kts
05-Feb-20 17:51 36.770237 -119.705984 307 369ft 91kts
05-Feb-20 17:53 36.777631 -119.718931 305 335ft 29kts
05-Feb-20 17:54 36.781117 -119.722879 34 335ft 21kts
05-Feb-20 17:55 36.778003 -119.715737 92 335ft 14kts
05-Feb-20 17:56 36.780242 -119.714455 304 335ft 5kts
05-Feb-20 17:57 36.780256 -119.714482 304 335ft 0kts
05-Feb-20 17:58 36.780256 -119.714482 304 335ft 0kts

Navigation Log

Ident Type
Flight plan parsing failed, navigation log unavailable